Darstellungsparameter: Aktuell verwendete Einstellungen:
Skalierung der Graphiken ... ?
xyx+y,   Skalierungsfaktor:      Skalierung: Modus: x, Faktor: 1
Darstellungszeitraum ... ?
Vom - - bis: - -   Zeitraum: 15.04.2021 - 16.04.2021
Min/Max/Avg-Anzeige ... ?
Zeige MMA aktuell
Zeige MMA Monat
Zeige MMA alles
Zeige --A aktuell
Zeige --A Monat
Zeige --A alles
Keine MMA-Anzeige
MMA:
Average (ber die Originaldaten)
MMA-Basis: 15.04.2021 - 16.04.2021
Quicknavigation für Darstellung... ?
Tage:      1T, 2T, 3T, 5T -1T -2T -3T -5T +1T +2T +3T +5T
Wochen: 1W, 2W, 3W -1W -2W -3W +1W +2W +3W
Monate: 1M, 3M, 6M -1M -3M -6M +1M +3M +6M
Jahre:    1J, 3J, 5J, 10J -1J -3J -5J -10J +1J +3J +5J +10J
Nutze für die Darstellung ... ?
Originaldaten oder Mittelwerte auf ...
Stundenbasis Tagesbasis Wochenbasis
Monatsbasis Jahresbasis      Datenbasis: Original-Daten
Darstellen als:
Statistik (Auto) Statistik J:M      Darstellung:
Zur Graphik,    zurück zur Übersicht aller Sensoren.
 
Tabellarische Datenbersicht: ?
 
Sensor: Nr:Datum:Temp:Abs-Feuchte:Windchill:Wind:
Aussen-T/F 1 15-04-2021 00:00:00 1.7 C 4.9 g/m*3 1.7 C 0 km/h
2 15-04-2021 00:05:00 1.7 C 4.9 g/m*3 1.7 C 0 km/h
3 15-04-2021 00:10:00 1.7 C 4.9 g/m*3 1.7 C 0 km/h
4 15-04-2021 00:15:00 1.7 C 4.95 g/m*3 1.7 C 0 km/h
5 15-04-2021 00:20:00 1.7 C 4.95 g/m*3 1.7 C 0 km/h
6 15-04-2021 00:25:00 1.7 C 4.95 g/m*3 1.7 C 0 km/h
7 15-04-2021 00:30:00 1.6 C 4.87 g/m*3 1.6 C 0 km/h
8 15-04-2021 00:35:00 1.4 C 4.8 g/m*3 1.4 C 0 km/h
9 15-04-2021 00:40:00 1.3 C 4.82 g/m*3 1.3 C 0 km/h
10 15-04-2021 00:45:00 1.2 C 4.74 g/m*3 1.2 C 0 km/h
11 15-04-2021 00:50:00 1.1 C 4.76 g/m*3 1.1 C 0 km/h
12 15-04-2021 00:55:00 1.1 C 4.76 g/m*3 1.1 C 0 km/h
13 15-04-2021 01:00:00 1 C 4.72 g/m*3 1 C 3.2 km/h
14 15-04-2021 01:05:00 1 C 4.78 g/m*3 1 C 3.2 km/h
15 15-04-2021 01:10:00 1 C 4.78 g/m*3 1 C 4.8 km/h
16 15-04-2021 01:15:00 0.9 C 4.74 g/m*3 0.9 C 0 km/h
17 15-04-2021 01:20:00 0.9 C 4.74 g/m*3 0.9 C 0 km/h
18 15-04-2021 01:25:00 0.8 C 4.66 g/m*3 0.8 C 0 km/h
19 15-04-2021 01:30:00 0.7 C 4.68 g/m*3 0.7 C 0 km/h
20 15-04-2021 01:35:00 0.6 C 4.65 g/m*3 0.6 C 0 km/h
21 15-04-2021 01:40:00 0.4 C 4.58 g/m*3 0.4 C 1.6 km/h
22 15-04-2021 01:45:00 0.4 C 4.58 g/m*3 0.4 C 0 km/h
23 15-04-2021 01:50:00 0.3 C 4.55 g/m*3 0.3 C 0 km/h
24 15-04-2021 01:55:00 0.3 C 4.55 g/m*3 0.3 C 0 km/h
25 15-04-2021 02:00:00 0.2 C 4.52 g/m*3 0.2 C 0 km/h
Sensor: Nr:Datum:Temp:Abs-Feuchte:Windchill:Wind:
Aussen-T/F 26 15-04-2021 02:05:00 0.1 C 4.49 g/m*3 0.1 C 0 km/h
27 15-04-2021 02:10:00 0 C 4.46 g/m*3 0 C 0 km/h
28 15-04-2021 02:15:00 -0.1 C 4.43 g/m*3 -0.1 C 0 km/h
29 15-04-2021 02:20:00 -0.1 C 4.43 g/m*3 -0.1 C 0 km/h
30 15-04-2021 02:25:00 -0.2 C 4.44 g/m*3 -0.2 C 0 km/h
31 15-04-2021 02:30:00 -0.2 C 4.44 g/m*3 -0.2 C 0 km/h
32 15-04-2021 02:35:00 -0.3 C 4.41 g/m*3 -0.3 C 0 km/h
33 15-04-2021 02:40:00 -0.3 C 4.41 g/m*3 -0.3 C 0 km/h
34 15-04-2021 02:45:00 -0.3 C 4.41 g/m*3 -0.3 C 0 km/h
35 15-04-2021 02:50:00 -0.3 C 4.41 g/m*3 -0.3 C 0 km/h
36 15-04-2021 02:55:00 -0.3 C 4.41 g/m*3 -0.3 C 0 km/h
37 15-04-2021 03:00:00 -0.3 C 4.41 g/m*3 -0.3 C 0 km/h
38 15-04-2021 03:05:00 -0.3 C 4.41 g/m*3 -0.3 C 0 km/h
39 15-04-2021 03:10:00 -0.3 C 4.41 g/m*3 -0.3 C 0 km/h
40 15-04-2021 03:15:00 -0.3 C 4.46 g/m*3 -0.3 C 0 km/h
41 15-04-2021 03:20:00 -0.4 C 4.43 g/m*3 -0.4 C 0 km/h
42 15-04-2021 03:25:00 -0.4 C 4.43 g/m*3 -0.4 C 0 km/h
43 15-04-2021 03:30:00 -0.5 C 4.35 g/m*3 -0.5 C 0 km/h
44 15-04-2021 03:35:00 -0.6 C 4.32 g/m*3 -0.6 C 0 km/h
45 15-04-2021 03:40:00 -0.6 C 4.37 g/m*3 -0.6 C 0 km/h
46 15-04-2021 03:45:00 -0.6 C 4.37 g/m*3 -0.6 C 0 km/h
47 15-04-2021 03:50:00 -0.6 C 4.37 g/m*3 -0.6 C 0 km/h
48 15-04-2021 03:55:00 -0.7 C 4.34 g/m*3 -0.7 C 0 km/h
49 15-04-2021 04:00:00 -0.7 C 4.34 g/m*3 -0.7 C 0 km/h
50 15-04-2021 04:05:00 -0.8 C 4.31 g/m*3 -0.8 C 0 km/h
Sensor: Nr:Datum:Temp:Abs-Feuchte:Windchill:Wind:
Aussen-T/F 51 15-04-2021 04:10:00 -0.8 C 4.31 g/m*3 -0.8 C 0 km/h
52 15-04-2021 04:15:00 -0.9 C 4.28 g/m*3 -0.9 C 0 km/h
53 15-04-2021 04:20:00 -0.9 C 4.28 g/m*3 -0.9 C 0 km/h
54 15-04-2021 04:25:00 -0.9 C 4.28 g/m*3 -0.9 C 0 km/h
55 15-04-2021 04:30:00 -0.9 C 4.28 g/m*3 -0.9 C 0 km/h
56 15-04-2021 04:35:00 -0.9 C 4.28 g/m*3 -0.9 C 0 km/h
57 15-04-2021 04:40:00 -0.9 C 4.28 g/m*3 -0.9 C 0 km/h
58 15-04-2021 04:45:00 -0.9 C 4.28 g/m*3 -0.9 C 0 km/h
59 15-04-2021 04:50:00 -0.9 C 4.28 g/m*3 -0.9 C 0 km/h
60 15-04-2021 04:55:00 -0.9 C 4.28 g/m*3 -0.9 C 0 km/h
61 15-04-2021 05:00:00 -0.8 C 4.31 g/m*3 -0.8 C 0 km/h
62 15-04-2021 05:05:00 -0.8 C 4.31 g/m*3 -0.8 C 0 km/h
63 15-04-2021 05:10:00 -0.7 C 4.39 g/m*3 -0.7 C 0 km/h
64 15-04-2021 05:15:00 -0.6 C 4.42 g/m*3 -0.6 C 0 km/h
65 15-04-2021 05:20:00 -0.6 C 4.42 g/m*3 -0.6 C 0 km/h
66 15-04-2021 05:25:00 -0.7 C 4.39 g/m*3 -0.7 C 0 km/h
67 15-04-2021 05:30:00 -0.7 C 4.39 g/m*3 -0.7 C 0 km/h
68 15-04-2021 05:35:00 -0.8 C 4.31 g/m*3 -0.8 C 0 km/h
69 15-04-2021 05:40:00 -0.8 C 4.31 g/m*3 -0.8 C 0 km/h
70 15-04-2021 05:45:00 -0.8 C 4.31 g/m*3 -0.8 C 0 km/h
71 15-04-2021 05:50:00 -0.8 C 4.31 g/m*3 -0.8 C 0 km/h
72 15-04-2021 05:55:00 -0.9 C 4.28 g/m*3 -0.9 C 0 km/h
73 15-04-2021 06:00:00 -0.9 C 4.28 g/m*3 -0.9 C 0 km/h
74 15-04-2021 06:05:00 -0.9 C 4.32 g/m*3 -0.9 C 0 km/h
75 15-04-2021 06:10:00 -1 C 4.29 g/m*3 -1 C 0 km/h
Sensor: Nr:Datum:Temp:Abs-Feuchte:Windchill:Wind:
Aussen-T/F 76 15-04-2021 06:15:00 -1.1 C 4.26 g/m*3 -1.1 C 0 km/h
77 15-04-2021 06:20:00 -1.1 C 4.26 g/m*3 -1.1 C 0 km/h
78 15-04-2021 06:25:00 -1.1 C 4.26 g/m*3 -1.1 C 0 km/h
79 15-04-2021 06:30:00 -1.1 C 4.26 g/m*3 -1.1 C 0 km/h
80 15-04-2021 06:35:00 -1.1 C 4.26 g/m*3 -1.1 C 0 km/h
81 15-04-2021 06:40:00 -1.2 C 4.24 g/m*3 -1.2 C 0 km/h
82 15-04-2021 06:45:00 -1.2 C 4.24 g/m*3 -1.2 C 0 km/h
83 15-04-2021 06:50:00 -1.2 C 4.24 g/m*3 -1.2 C 0 km/h
84 15-04-2021 06:55:00 -1.3 C 4.21 g/m*3 -1.3 C 0 km/h
85 15-04-2021 07:00:00 -1.3 C 4.21 g/m*3 -1.3 C 0 km/h
86 15-04-2021 07:05:00 -1.3 C 4.21 g/m*3 -1.3 C 0 km/h
87 15-04-2021 07:10:00 -1.2 C 4.24 g/m*3 -1.2 C 0 km/h
88 15-04-2021 07:15:00 -1.2 C 4.24 g/m*3 -1.2 C 0 km/h
89 15-04-2021 07:20:00 -1.1 C 4.26 g/m*3 -1.1 C 0 km/h
90 15-04-2021 07:25:00 -1.1 C 4.26 g/m*3 -1.1 C 0 km/h
91 15-04-2021 07:30:00 -1.1 C 4.26 g/m*3 -1.1 C 0 km/h
92 15-04-2021 07:35:00 -1 C 4.29 g/m*3 -1 C 0 km/h
93 15-04-2021 07:40:00 -1 C 4.29 g/m*3 -1 C 0 km/h
94 15-04-2021 07:45:00 -1 C 4.29 g/m*3 -1 C 0 km/h
95 15-04-2021 07:50:00 -0.9 C 4.32 g/m*3 -0.9 C 0 km/h
96 15-04-2021 07:55:00 -0.9 C 4.32 g/m*3 -0.9 C 0 km/h
97 15-04-2021 08:00:00 -0.9 C 4.32 g/m*3 -0.9 C 0 km/h
98 15-04-2021 08:05:00 -0.9 C 4.32 g/m*3 -0.9 C 0 km/h
99 15-04-2021 08:10:00 -0.8 C 4.35 g/m*3 -0.8 C 0 km/h
100 15-04-2021 08:15:00 -0.8 C 4.35 g/m*3 -0.8 C 0 km/h
Sensor: Nr:Datum:Temp:Abs-Feuchte:Windchill:Wind:
Aussen-T/F 101 15-04-2021 08:20:00 -0.7 C 4.39 g/m*3 -0.7 C 0 km/h
102 15-04-2021 08:25:00 -0.7 C 4.39 g/m*3 -0.7 C 0 km/h
103 15-04-2021 08:30:00 -0.6 C 4.42 g/m*3 -0.6 C 0 km/h
104 15-04-2021 08:35:00 -0.6 C 4.42 g/m*3 -0.6 C 0 km/h
105 15-04-2021 08:40:00 -0.5 C 4.45 g/m*3 -0.5 C 0 km/h
106 15-04-2021 08:45:00 -0.4 C 4.48 g/m*3 -0.4 C 0 km/h
107 15-04-2021 08:50:00 -0.3 C 4.51 g/m*3 -0.3 C 0 km/h
108 15-04-2021 08:55:00 -0.3 C 4.51 g/m*3 -0.3 C 0 km/h
109 15-04-2021 09:00:00 -0.2 C 4.54 g/m*3 -0.2 C 0 km/h
110 15-04-2021 09:05:00 -0.2 C 4.54 g/m*3 -0.2 C 0 km/h
111 15-04-2021 09:10:00 -0.1 C 4.57 g/m*3 -0.1 C 0 km/h
112 15-04-2021 09:15:00 0.1 C 4.68 g/m*3 0.1 C 0 km/h
113 15-04-2021 09:20:00 0.2 C 4.72 g/m*3 0.2 C 1.6 km/h
114 15-04-2021 09:25:00 0.4 C 4.78 g/m*3 0.4 C 0 km/h
115 15-04-2021 09:30:00 0.6 C 4.85 g/m*3 0.6 C 0 km/h
116 15-04-2021 09:35:00 0.7 C 4.88 g/m*3 0.7 C 0 km/h
117 15-04-2021 09:40:00 0.8 C 4.91 g/m*3 0.8 C 0 km/h
118 15-04-2021 09:45:00 0.9 C 4.95 g/m*3 0.9 C 1.6 km/h
119 15-04-2021 09:50:00 1.1 C 5.02 g/m*3 1.1 C 0 km/h
120 15-04-2021 09:55:00 1.2 C 5.05 g/m*3 1.2 C 0 km/h
121 15-04-2021 10:00:00 1.3 C 5.09 g/m*3 1.3 C 0 km/h
122 15-04-2021 10:05:00 1.5 C 5.16 g/m*3 1.5 C 0 km/h
123 15-04-2021 10:10:00 1.7 C 5.23 g/m*3 1.7 C 0 km/h
124 15-04-2021 10:15:00 1.8 C 5.26 g/m*3 1.8 C 0 km/h
125 15-04-2021 10:20:00 2.1 C 5.37 g/m*3 2.1 C 0 km/h
Sensor: Nr:Datum:Temp:Abs-Feuchte:Windchill:Wind:
Aussen-T/F 126 15-04-2021 10:25:00 2.3 C 5.44 g/m*3 2.3 C 0 km/h
127 15-04-2021 10:30:00 2.6 C 5.56 g/m*3 2.6 C 0 km/h
128 15-04-2021 10:35:00 2.8 C 5.63 g/m*3 2.8 C 0 km/h
129 15-04-2021 10:40:00 3.1 C 5.75 g/m*3 3.1 C 0 km/h
130 15-04-2021 10:45:00 3.2 C 5.79 g/m*3 3.2 C 0 km/h
131 15-04-2021 10:50:00 3.4 C 5.86 g/m*3 3.4 C 0 km/h
132 15-04-2021 10:55:00 3.7 C 5.92 g/m*3 3.7 C 0 km/h
133 15-04-2021 11:00:00 3.9 C 5.94 g/m*3 3.9 C 3.2 km/h
134 15-04-2021 11:05:00 4.3 C 5.97 g/m*3 4.3 C 1.6 km/h
135 15-04-2021 11:10:00 4.6 C 5.96 g/m*3 4.6 C 4.8 km/h
136 15-04-2021 11:15:00 4.9 C 5.87 g/m*3 3.48 C 6.4 km/h
137 15-04-2021 11:20:00 5.4 C 5.93 g/m*3 4.06 C 6.4 km/h
138 15-04-2021 11:25:00 5.8 C 5.95 g/m*3 5.8 C 3.2 km/h
139 15-04-2021 11:30:00 6.1 C 5.7 g/m*3 6.1 C 4.8 km/h
140 15-04-2021 11:35:00 6.3 C 5.63 g/m*3 5.1 C 6.4 km/h
141 15-04-2021 11:40:00 6.3 C 5.48 g/m*3 6.3 C 3.2 km/h
142 15-04-2021 11:45:00 6.5 C 5.55 g/m*3 6.5 C 3.2 km/h
143 15-04-2021 11:50:00 6.8 C 5.51 g/m*3 5.22 C 8.1 km/h
144 15-04-2021 11:55:00 7 C 5.42 g/m*3 5.46 C 8.1 km/h
145 15-04-2021 12:00:00 7.2 C 5.42 g/m*3 5.69 C 8.1 km/h
146 15-04-2021 12:05:00 7.4 C 5.49 g/m*3 7.4 C 3.2 km/h
147 15-04-2021 12:10:00 7.6 C 5.4 g/m*3 6.16 C 8.1 km/h
148 15-04-2021 12:15:00 7.7 C 5.35 g/m*3 6.71 C 6.4 km/h
149 15-04-2021 12:20:00 7.8 C 5.3 g/m*3 6.83 C 6.4 km/h
150 15-04-2021 12:25:00 7.9 C 5.34 g/m*3 5.89 C 11.3 km/h
Sensor: Nr:Datum:Temp:Abs-Feuchte:Windchill:Wind:
Aussen-T/F 151 15-04-2021 12:30:00 7.8 C 5.3 g/m*3 5.77 C 11.3 km/h
152 15-04-2021 12:35:00 7.8 C 5.3 g/m*3 7.8 C 3.2 km/h
153 15-04-2021 12:40:00 7.8 C 5.22 g/m*3 6.83 C 6.4 km/h
154 15-04-2021 12:45:00 7.7 C 5.27 g/m*3 5.15 C 14.5 km/h
155 15-04-2021 12:50:00 7.4 C 5.33 g/m*3 4.78 C 14.5 km/h
156 15-04-2021 12:55:00 7 C 5.5 g/m*3 4.29 C 14.5 km/h
157 15-04-2021 13:00:00 6.5 C 5.55 g/m*3 3.44 C 16.1 km/h
158 15-04-2021 13:05:00 6.3 C 5.63 g/m*3 4.27 C 9.7 km/h
159 15-04-2021 13:10:00 6.4 C 5.59 g/m*3 5.21 C 6.4 km/h
160 15-04-2021 13:15:00 6.7 C 5.62 g/m*3 6.7 C 4.8 km/h
161 15-04-2021 13:20:00 7.1 C 5.54 g/m*3 7.1 C 4.8 km/h
162 15-04-2021 13:25:00 7.5 C 5.44 g/m*3 6.48 C 6.4 km/h
163 15-04-2021 13:30:00 7.8 C 5.55 g/m*3 7.8 C 1.6 km/h
164 15-04-2021 13:35:00 8 C 5.46 g/m*3 8 C 4.8 km/h
165 15-04-2021 13:40:00 8.2 C 5.28 g/m*3 6.87 C 8.1 km/h
166 15-04-2021 13:45:00 8.4 C 5.43 g/m*3 6.78 C 9.7 km/h
167 15-04-2021 13:50:00 8.5 C 5.38 g/m*3 7.64 C 6.4 km/h
168 15-04-2021 13:55:00 8.5 C 5.12 g/m*3 6.9 C 9.7 km/h
169 15-04-2021 14:00:00 8.5 C 5.38 g/m*3 8.5 C 3.2 km/h
170 15-04-2021 14:05:00 8.5 C 5.12 g/m*3 8.5 C 4.8 km/h
171 15-04-2021 14:10:00 8.4 C 5.09 g/m*3 7.52 C 6.4 km/h
172 15-04-2021 14:15:00 8.4 C 4.92 g/m*3 6.78 C 9.7 km/h
173 15-04-2021 14:20:00 8.7 C 5.1 g/m*3 7.87 C 6.4 km/h
174 15-04-2021 14:25:00 9 C 5.03 g/m*3 8.21 C 6.4 km/h
175 15-04-2021 14:30:00 9.2 C 5.27 g/m*3 7.21 C 12.9 km/h
Sensor: Nr:Datum:Temp:Abs-Feuchte:Windchill:Wind:
Aussen-T/F 176 15-04-2021 14:35:00 9.2 C 5.09 g/m*3 7.21 C 12.9 km/h
177 15-04-2021 14:40:00 8.9 C 5.17 g/m*3 6.42 C 16.1 km/h
178 15-04-2021 14:45:00 8.6 C 5.07 g/m*3 6.05 C 16.1 km/h
179 15-04-2021 14:50:00 8.3 C 5.14 g/m*3 5.68 C 16.1 km/h
180 15-04-2021 14:55:00 8.2 C 5.28 g/m*3 6.87 C 8.1 km/h
181 15-04-2021 15:00:00 8.3 C 5.48 g/m*3 6.99 C 8.1 km/h
182 15-04-2021 15:05:00 8.4 C 5.34 g/m*3 7.52 C 6.4 km/h
183 15-04-2021 15:10:00 8.6 C 5.24 g/m*3 7.01 C 9.7 km/h
184 15-04-2021 15:15:00 8.7 C 5.36 g/m*3 7.87 C 6.4 km/h
185 15-04-2021 15:20:00 9 C 5.2 g/m*3 7.81 C 8.1 km/h
186 15-04-2021 15:25:00 9.3 C 5.3 g/m*3 7.85 C 9.7 km/h
187 15-04-2021 15:30:00 9.6 C 5.13 g/m*3 7.94 C 11.3 km/h
188 15-04-2021 15:35:00 9.6 C 5.31 g/m*3 7.7 C 12.9 km/h
189 15-04-2021 15:40:00 9.2 C 5.09 g/m*3 7.21 C 12.9 km/h
190 15-04-2021 15:45:00 9.1 C 5.32 g/m*3 7.33 C 11.3 km/h
191 15-04-2021 15:50:00 9.4 C 5.34 g/m*3 6.69 C 19.3 km/h
192 15-04-2021 15:55:00 9.6 C 5.22 g/m*3 6.64 C 22.5 km/h
193 15-04-2021 16:00:00 9.1 C 5.23 g/m*3 6.48 C 17.7 km/h
194 15-04-2021 16:05:00 8.7 C 5.28 g/m*3 5.98 C 17.7 km/h
195 15-04-2021 16:10:00 8.2 C 5.61 g/m*3 5.76 C 14.5 km/h
196 15-04-2021 16:15:00 7.8 C 5.88 g/m*3 7.8 C 3.2 km/h
197 15-04-2021 16:20:00 7.6 C 6.12 g/m*3 7.6 C 4.8 km/h
198 15-04-2021 16:25:00 7.3 C 6.16 g/m*3 7.3 C 3.2 km/h
199 15-04-2021 16:30:00 7.1 C 6.08 g/m*3 5.58 C 8.1 km/h
200 15-04-2021 16:35:00 6.8 C 6.12 g/m*3 6.8 C 4.8 km/h
Sensor: Nr:Datum:Temp:Abs-Feuchte:Windchill:Wind:
Aussen-T/F 201 15-04-2021 16:40:00 6.7 C 6.15 g/m*3 6.7 C 3.2 km/h
202 15-04-2021 16:45:00 6.7 C 6.08 g/m*3 6.7 C 3.2 km/h
203 15-04-2021 16:50:00 6.7 C 6.15 g/m*3 6.7 C 3.2 km/h
204 15-04-2021 16:55:00 6.9 C 6 g/m*3 6.9 C 4.8 km/h
205 15-04-2021 17:00:00 7.4 C 6.2 g/m*3 7.4 C 4.8 km/h
206 15-04-2021 17:05:00 7.9 C 5.75 g/m*3 6.52 C 8.1 km/h
207 15-04-2021 17:10:00 8.1 C 5.57 g/m*3 8.1 C 4.8 km/h
208 15-04-2021 17:15:00 8.1 C 5.49 g/m*3 8.1 C 4.8 km/h
209 15-04-2021 17:20:00 8.1 C 5.74 g/m*3 5.43 C 16.1 km/h
210 15-04-2021 17:25:00 8.2 C 5.86 g/m*3 5.76 C 14.5 km/h
211 15-04-2021 17:30:00 8 C 5.7 g/m*3 6.3 C 9.7 km/h
212 15-04-2021 17:35:00 7.9 C 5.83 g/m*3 6.94 C 6.4 km/h
213 15-04-2021 17:40:00 7.9 C 5.67 g/m*3 6.94 C 6.4 km/h
214 15-04-2021 17:45:00 7.9 C 5.75 g/m*3 7.9 C 3.2 km/h
215 15-04-2021 17:50:00 7.9 C 5.75 g/m*3 7.9 C 1.6 km/h
216 15-04-2021 17:55:00 8 C 5.7 g/m*3 8 C 3.2 km/h
217 15-04-2021 18:00:00 8.4 C 5.77 g/m*3 8.4 C 0 km/h
218 15-04-2021 18:05:00 8.9 C 5.61 g/m*3 8.9 C 4.8 km/h
219 15-04-2021 18:10:00 9.3 C 5.75 g/m*3 9.3 C 1.6 km/h
220 15-04-2021 18:15:00 9.5 C 5.46 g/m*3 9.5 C 3.2 km/h
221 15-04-2021 18:20:00 9.6 C 5.68 g/m*3 9.6 C 3.2 km/h
222 15-04-2021 18:25:00 9.3 C 5.3 g/m*3 9.3 C 3.2 km/h
223 15-04-2021 18:30:00 9 C 5.2 g/m*3 7.49 C 9.7 km/h
224 15-04-2021 18:35:00 8.7 C 5.19 g/m*3 8.7 C 3.2 km/h
225 15-04-2021 18:40:00 8.6 C 5.41 g/m*3 8.6 C 1.6 km/h
Sensor: Nr:Datum:Temp:Abs-Feuchte:Windchill:Wind:
Aussen-T/F 226 15-04-2021 18:45:00 8.4 C 5.17 g/m*3 8.4 C 4.8 km/h
227 15-04-2021 18:50:00 8.4 C 5.17 g/m*3 8.4 C 3.2 km/h
228 15-04-2021 18:55:00 8.6 C 5.41 g/m*3 8.6 C 1.6 km/h
229 15-04-2021 19:00:00 8.9 C 5.17 g/m*3 8.9 C 3.2 km/h
230 15-04-2021 19:05:00 9 C 5.2 g/m*3 9 C 3.2 km/h
231 15-04-2021 19:10:00 8.9 C 4.99 g/m*3 6.62 C 14.5 km/h
232 15-04-2021 19:15:00 8.4 C 4.92 g/m*3 4.96 C 24.1 km/h
233 15-04-2021 19:20:00 8 C 4.96 g/m*3 5.3 C 16.1 km/h
234 15-04-2021 19:25:00 7.8 C 4.98 g/m*3 5.27 C 14.5 km/h
235 15-04-2021 19:30:00 7.6 C 4.91 g/m*3 5.82 C 9.7 km/h
236 15-04-2021 19:35:00 7.4 C 5.01 g/m*3 7.4 C 1.6 km/h
237 15-04-2021 19:40:00 7.3 C 5.14 g/m*3 7.3 C 3.2 km/h
238 15-04-2021 19:45:00 7.3 C 5.06 g/m*3 7.3 C 1.6 km/h
239 15-04-2021 19:50:00 7.2 C 5.18 g/m*3 7.2 C 0 km/h
240 15-04-2021 19:55:00 7.2 C 5.42 g/m*3 7.2 C 0 km/h
241 15-04-2021 20:00:00 7.1 C 5.46 g/m*3 7.1 C 0 km/h
242 15-04-2021 20:05:00 7 C 5.5 g/m*3 7 C 0 km/h
243 15-04-2021 20:10:00 6.8 C 5.51 g/m*3 6.8 C 3.2 km/h
244 15-04-2021 20:15:00 6.6 C 5.44 g/m*3 6.6 C 4.8 km/h
245 15-04-2021 20:20:00 6.4 C 5.36 g/m*3 6.4 C 3.2 km/h
246 15-04-2021 20:25:00 6.2 C 5.44 g/m*3 6.2 C 4.8 km/h
247 15-04-2021 20:30:00 5.9 C 5.41 g/m*3 5.9 C 3.2 km/h
248 15-04-2021 20:35:00 5.8 C 5.44 g/m*3 5.8 C 4.8 km/h
249 15-04-2021 20:40:00 5.7 C 5.48 g/m*3 5.7 C 4.8 km/h
250 15-04-2021 20:45:00 5.6 C 5.51 g/m*3 5.6 C 4.8 km/h
Sensor: Nr:Datum:Temp:Abs-Feuchte:Windchill:Wind:
Aussen-T/F 251 15-04-2021 20:50:00 5.5 C 5.55 g/m*3 5.5 C 3.2 km/h
252 15-04-2021 20:55:00 5.4 C 5.51 g/m*3 5.4 C 4.8 km/h
253 15-04-2021 21:00:00 5.3 C 5.54 g/m*3 5.3 C 3.2 km/h
254 15-04-2021 21:05:00 5.3 C 5.54 g/m*3 5.3 C 4.8 km/h
255 15-04-2021 21:10:00 5.2 C 5.51 g/m*3 5.2 C 3.2 km/h
256 15-04-2021 21:15:00 5.2 C 5.51 g/m*3 5.2 C 1.6 km/h
257 15-04-2021 21:20:00 5.1 C 5.54 g/m*3 5.1 C 0 km/h
258 15-04-2021 21:25:00 5.1 C 5.54 g/m*3 5.1 C 0 km/h
259 15-04-2021 21:30:00 5 C 5.57 g/m*3 5 C 0 km/h
260 15-04-2021 21:35:00 4.9 C 5.54 g/m*3 4.9 C 0 km/h
261 15-04-2021 21:40:00 4.9 C 5.6 g/m*3 4.9 C 0 km/h
262 15-04-2021 21:45:00 4.9 C 5.6 g/m*3 4.9 C 0 km/h
263 15-04-2021 21:50:00 4.9 C 5.6 g/m*3 4.9 C 0 km/h
264 15-04-2021 21:55:00 4.8 C 5.57 g/m*3 4.8 C 0 km/h
265 15-04-2021 22:00:00 4.7 C 5.53 g/m*3 4.7 C 0 km/h
266 15-04-2021 22:05:00 4.4 C 5.42 g/m*3 4.4 C 0 km/h
267 15-04-2021 22:10:00 4.3 C 5.38 g/m*3 4.3 C 0 km/h
268 15-04-2021 22:15:00 4.2 C 5.35 g/m*3 4.2 C 0 km/h
269 15-04-2021 22:20:00 4 C 5.28 g/m*3 4 C 0 km/h
270 15-04-2021 22:25:00 3.9 C 5.24 g/m*3 3.9 C 0 km/h
271 15-04-2021 22:30:00 3.8 C 5.21 g/m*3 3.8 C 0 km/h
272 15-04-2021 22:35:00 3.7 C 5.17 g/m*3 3.7 C 0 km/h
273 15-04-2021 22:40:00 3.7 C 5.17 g/m*3 3.7 C 0 km/h
274 15-04-2021 22:45:00 3.5 C 5.1 g/m*3 3.5 C 0 km/h
275 15-04-2021 22:50:00 3.4 C 5.07 g/m*3 3.4 C 0 km/h
Sensor: Nr:Datum:Temp:Abs-Feuchte:Windchill:Wind:
Aussen-T/F 276 15-04-2021 22:55:00 3.3 C 5.04 g/m*3 3.3 C 0 km/h
277 15-04-2021 23:00:00 3.2 C 5.06 g/m*3 3.2 C 0 km/h
278 15-04-2021 23:05:00 3.2 C 5.06 g/m*3 3.2 C 0 km/h
279 15-04-2021 23:10:00 3.1 C 5.03 g/m*3 3.1 C 0 km/h
280 15-04-2021 23:15:00 2.9 C 4.96 g/m*3 2.9 C 0 km/h
281 15-04-2021 23:20:00 2.8 C 4.87 g/m*3 2.8 C 0 km/h
282 15-04-2021 23:25:00 2.7 C 4.89 g/m*3 2.7 C 0 km/h
283 15-04-2021 23:30:00 2.6 C 4.86 g/m*3 2.6 C 4.8 km/h
284 15-04-2021 23:35:00 2.4 C 4.8 g/m*3 2.4 C 3.2 km/h
285 15-04-2021 23:40:00 2.3 C 4.82 g/m*3 2.3 C 1.6 km/h
286 15-04-2021 23:45:00 2.3 C 4.82 g/m*3 2.3 C 1.6 km/h
287 15-04-2021 23:50:00 2.2 C 4.79 g/m*3 2.2 C 0 km/h
288 15-04-2021 23:55:00 2.1 C 4.81 g/m*3 2.1 C 0 km/h
289 16-04-2021 00:00:00 2.1 C 4.81 g/m*3 2.1 C 0 km/h
290 16-04-2021 00:05:00 2.1 C 4.81 g/m*3 2.1 C 3.2 km/h
291 16-04-2021 00:10:00 2 C 4.78 g/m*3 2 C 1.6 km/h
292 16-04-2021 00:15:00 1.8 C 4.71 g/m*3 1.8 C 0 km/h
293 16-04-2021 00:20:00 1.7 C 4.68 g/m*3 1.7 C 3.2 km/h
294 16-04-2021 00:25:00 1.6 C 4.65 g/m*3 1.6 C 0 km/h
295 16-04-2021 00:30:00 1.4 C 4.59 g/m*3 1.4 C 0 km/h
296 16-04-2021 00:35:00 1.3 C 4.61 g/m*3 1.3 C 0 km/h
297 16-04-2021 00:40:00 1.2 C 4.58 g/m*3 1.2 C 0 km/h
298 16-04-2021 00:45:00 1.1 C 4.6 g/m*3 1.1 C 0 km/h
299 16-04-2021 00:50:00 0.9 C 4.54 g/m*3 0.9 C 0 km/h
300 16-04-2021 00:55:00 0.8 C 4.51 g/m*3 0.8 C 0 km/h
Sensor: Nr:Datum:Temp:Abs-Feuchte:Windchill:Wind:
Aussen-T/F 301 16-04-2021 01:00:00 0.8 C 4.56 g/m*3 0.8 C 0 km/h
302 16-04-2021 01:05:00 0.7 C 4.53 g/m*3 0.7 C 0 km/h
303 16-04-2021 01:10:00 0.7 C 4.58 g/m*3 0.7 C 0 km/h
304 16-04-2021 01:15:00 0.7 C 4.58 g/m*3 0.7 C 0 km/h
305 16-04-2021 01:20:00 0.7 C 4.58 g/m*3 0.7 C 0 km/h
306 16-04-2021 01:25:00 0.7 C 4.58 g/m*3 0.7 C 0 km/h
307 16-04-2021 01:30:00 0.6 C 4.49 g/m*3 0.6 C 0 km/h
308 16-04-2021 01:35:00 0.5 C 4.46 g/m*3 0.5 C 0 km/h
309 16-04-2021 01:40:00 0.4 C 4.48 g/m*3 0.4 C 0 km/h
310 16-04-2021 01:45:00 0.3 C 4.45 g/m*3 0.3 C 0 km/h
311 16-04-2021 01:50:00 0.3 C 4.45 g/m*3 0.3 C 0 km/h
312 16-04-2021 01:55:00 0.2 C 4.42 g/m*3 0.2 C 0 km/h
313 16-04-2021 02:00:00 0.2 C 4.42 g/m*3 0.2 C 0 km/h
314 16-04-2021 02:05:00 0.2 C 4.42 g/m*3 0.2 C 0 km/h
315 16-04-2021 02:10:00 0.2 C 4.42 g/m*3 0.2 C 0 km/h
316 16-04-2021 02:15:00 0.2 C 4.47 g/m*3 0.2 C 0 km/h
317 16-04-2021 02:20:00 0.2 C 4.47 g/m*3 0.2 C 0 km/h
318 16-04-2021 02:25:00 0.2 C 4.47 g/m*3 0.2 C 0 km/h
319 16-04-2021 02:30:00 0.3 C 4.5 g/m*3 0.3 C 0 km/h
320 16-04-2021 02:35:00 0.4 C 4.58 g/m*3 0.4 C 0 km/h
321 16-04-2021 02:40:00 0.4 C 4.53 g/m*3 0.4 C 0 km/h
322 16-04-2021 02:45:00 0.6 C 4.65 g/m*3 0.6 C 0 km/h
323 16-04-2021 02:50:00 0.6 C 4.65 g/m*3 0.6 C 0 km/h
324 16-04-2021 02:55:00 0.7 C 4.68 g/m*3 0.7 C 0 km/h
325 16-04-2021 03:00:00 0.8 C 4.71 g/m*3 0.8 C 0 km/h
Sensor: Nr:Datum:Temp:Abs-Feuchte:Windchill:Wind:
Aussen-T/F 326 16-04-2021 03:05:00 0.8 C 4.66 g/m*3 0.8 C 0 km/h
327 16-04-2021 03:10:00 0.9 C 4.69 g/m*3 0.9 C 0 km/h
328 16-04-2021 03:15:00 0.9 C 4.74 g/m*3 0.9 C 0 km/h
329 16-04-2021 03:20:00 0.9 C 4.69 g/m*3 0.9 C 0 km/h
330 16-04-2021 03:25:00 1 C 4.72 g/m*3 1 C 0 km/h
331 16-04-2021 03:30:00 1 C 4.72 g/m*3 1 C 0 km/h
332 16-04-2021 03:35:00 1.1 C 4.76 g/m*3 1.1 C 0 km/h
333 16-04-2021 03:40:00 1.1 C 4.76 g/m*3 1.1 C 1.6 km/h
334 16-04-2021 03:45:00 1.2 C 4.79 g/m*3 1.2 C 0 km/h
335 16-04-2021 03:50:00 1.2 C 4.79 g/m*3 1.2 C 0 km/h
336 16-04-2021 03:55:00 1.3 C 4.82 g/m*3 1.3 C 0 km/h
337 16-04-2021 04:00:00 1.3 C 4.82 g/m*3 1.3 C 0 km/h
338 16-04-2021 04:05:00 1.3 C 4.82 g/m*3 1.3 C 0 km/h
339 16-04-2021 04:10:00 1.4 C 4.85 g/m*3 1.4 C 0 km/h
340 16-04-2021 04:15:00 1.4 C 4.85 g/m*3 1.4 C 0 km/h
341 16-04-2021 04:20:00 1.4 C 4.85 g/m*3 1.4 C 0 km/h
342 16-04-2021 04:25:00 1.4 C 4.85 g/m*3 1.4 C 0 km/h
343 16-04-2021 04:30:00 1.4 C 4.85 g/m*3 1.4 C 0 km/h
344 16-04-2021 04:35:00 1.5 C 4.89 g/m*3 1.5 C 0 km/h
345 16-04-2021 04:40:00 1.5 C 4.89 g/m*3 1.5 C 1.6 km/h
346 16-04-2021 04:45:00 1.5 C 4.89 g/m*3 1.5 C 0 km/h
347 16-04-2021 04:50:00 1.6 C 4.92 g/m*3 1.6 C 0 km/h
348 16-04-2021 04:55:00 1.6 C 4.87 g/m*3 1.6 C 0 km/h
349 16-04-2021 05:00:00 1.6 C 4.87 g/m*3 1.6 C 0 km/h
350 16-04-2021 05:05:00 1.6 C 4.87 g/m*3 1.6 C 0 km/h
Sensor: Nr:Datum:Temp:Abs-Feuchte:Windchill:Wind:
Aussen-T/F 351 16-04-2021 05:10:00 1.6 C 4.87 g/m*3 1.6 C 0 km/h
352 16-04-2021 05:15:00 1.6 C 4.87 g/m*3 1.6 C 0 km/h
353 16-04-2021 05:20:00 1.6 C 4.87 g/m*3 1.6 C 0 km/h
354 16-04-2021 05:25:00 1.6 C 4.87 g/m*3 1.6 C 0 km/h
355 16-04-2021 05:30:00 1.6 C 4.87 g/m*3 1.6 C 0 km/h
356 16-04-2021 05:35:00 1.6 C 4.87 g/m*3 1.6 C 0 km/h
357 16-04-2021 05:40:00 1.5 C 4.83 g/m*3 1.5 C 0 km/h
358 16-04-2021 05:45:00 1.5 C 4.83 g/m*3 1.5 C 0 km/h
359 16-04-2021 05:50:00 1.4 C 4.8 g/m*3 1.4 C 0 km/h
360 16-04-2021 05:55:00 1.5 C 4.83 g/m*3 1.5 C 0 km/h
361 16-04-2021 06:00:00 1.5 C 4.83 g/m*3 1.5 C 0 km/h
362 16-04-2021 06:05:00 1.6 C 4.92 g/m*3 1.6 C 0 km/h
363 16-04-2021 06:10:00 1.6 C 4.87 g/m*3 1.6 C 0 km/h
364 16-04-2021 06:15:00 1.6 C 4.92 g/m*3 1.6 C 0 km/h
365 16-04-2021 06:20:00 1.7 C 4.9 g/m*3 1.7 C 0 km/h
366 16-04-2021 06:25:00 1.7 C 4.9 g/m*3 1.7 C 0 km/h
367 16-04-2021 06:30:00 1.7 C 4.9 g/m*3 1.7 C 0 km/h
368 16-04-2021 06:35:00 1.7 C 4.9 g/m*3 1.7 C 1.6 km/h
369 16-04-2021 06:40:00 1.7 C 4.9 g/m*3 1.7 C 0 km/h
370 16-04-2021 06:45:00 1.7 C 4.9 g/m*3 1.7 C 0 km/h
371 16-04-2021 06:50:00 1.7 C 4.9 g/m*3 1.7 C 0 km/h
372 16-04-2021 06:55:00 1.7 C 4.9 g/m*3 1.7 C 0 km/h
373 16-04-2021 07:00:00 1.7 C 4.95 g/m*3 1.7 C 0 km/h
374 16-04-2021 07:05:00 1.7 C 4.95 g/m*3 1.7 C 0 km/h
375 16-04-2021 07:10:00 1.7 C 4.95 g/m*3 1.7 C 0 km/h
Sensor: Nr:Datum:Temp:Abs-Feuchte:Windchill:Wind:
Aussen-T/F 376 16-04-2021 07:15:00 1.8 C 4.99 g/m*3 1.8 C 0 km/h
377 16-04-2021 07:20:00 1.8 C 4.99 g/m*3 1.8 C 0 km/h
378 16-04-2021 07:25:00 1.9 C 5.02 g/m*3 1.9 C 0 km/h
379 16-04-2021 07:30:00 1.9 C 5.02 g/m*3 1.9 C 0 km/h
380 16-04-2021 07:35:00 2 C 5.06 g/m*3 2 C 0 km/h
381 16-04-2021 07:40:00 2.1 C 5.09 g/m*3 2.1 C 0 km/h
382 16-04-2021 07:45:00 2.2 C 5.13 g/m*3 2.2 C 0 km/h
383 16-04-2021 07:50:00 2.2 C 5.13 g/m*3 2.2 C 0 km/h
384 16-04-2021 07:55:00 2.2 C 5.07 g/m*3 2.2 C 0 km/h
385 16-04-2021 08:00:00 2.2 C 5.07 g/m*3 2.2 C 0 km/h
386 16-04-2021 08:05:00 2.2 C 5.07 g/m*3 2.2 C 0 km/h
387 16-04-2021 08:10:00 2.3 C 5.1 g/m*3 2.3 C 0 km/h
388 16-04-2021 08:15:00 2.3 C 5.16 g/m*3 2.3 C 0 km/h
389 16-04-2021 08:20:00 2.4 C 5.2 g/m*3 2.4 C 0 km/h
390 16-04-2021 08:25:00 2.6 C 5.21 g/m*3 2.6 C 0 km/h
391 16-04-2021 08:30:00 2.7 C 5.24 g/m*3 2.7 C 0 km/h
392 16-04-2021 08:35:00 2.9 C 5.32 g/m*3 2.9 C 0 km/h
393 16-04-2021 08:40:00 3.1 C 5.33 g/m*3 3.1 C 0 km/h
394 16-04-2021 08:45:00 3.3 C 5.4 g/m*3 3.3 C 1.6 km/h
395 16-04-2021 08:50:00 3.4 C 5.44 g/m*3 3.4 C 0 km/h
396 16-04-2021 08:55:00 3.7 C 5.48 g/m*3 3.7 C 0 km/h
397 16-04-2021 09:00:00 3.8 C 5.46 g/m*3 3.8 C 1.6 km/h
398 16-04-2021 09:05:00 4 C 5.4 g/m*3 4 C 0 km/h
399 16-04-2021 09:10:00 4.2 C 5.35 g/m*3 4.2 C 3.2 km/h
400 16-04-2021 09:15:00 4.3 C 5.32 g/m*3 4.3 C 1.6 km/h
Sensor: Nr:Datum:Temp:Abs-Feuchte:Windchill:Wind:
Aussen-T/F 401 16-04-2021 09:20:00 4.6 C 5.29 g/m*3 2.64 C 8.1 km/h
402 16-04-2021 09:25:00 4.7 C 5.13 g/m*3 2.76 C 8.1 km/h
403 16-04-2021 09:30:00 4.9 C 5.13 g/m*3 2.61 C 9.7 km/h
404 16-04-2021 09:35:00 5 C 5.1 g/m*3 2.72 C 9.7 km/h
405 16-04-2021 09:40:00 5.2 C 5.1 g/m*3 3.34 C 8.1 km/h
406 16-04-2021 09:45:00 5.3 C 5.13 g/m*3 2.75 C 11.3 km/h
407 16-04-2021 09:50:00 5.3 C 5.06 g/m*3 3.46 C 8.1 km/h
408 16-04-2021 09:55:00 5.5 C 5.13 g/m*3 3.7 C 8.1 km/h
409 16-04-2021 10:00:00 5.6 C 5.16 g/m*3 3.44 C 9.7 km/h
410 16-04-2021 10:05:00 5.7 C 5.12 g/m*3 3.23 C 11.3 km/h
411 16-04-2021 10:10:00 5.8 C 5.16 g/m*3 3.68 C 9.7 km/h
412 16-04-2021 10:15:00 5.9 C 5.19 g/m*3 4.17 C 8.1 km/h
413 16-04-2021 10:20:00 6 C 5.15 g/m*3 4.75 C 6.4 km/h
414 16-04-2021 10:25:00 6.1 C 5.19 g/m*3 4.86 C 6.4 km/h
415 16-04-2021 10:30:00 6.3 C 5.18 g/m*3 5.1 C 6.4 km/h
416 16-04-2021 10:35:00 6.4 C 4.99 g/m*3 3.8 C 12.9 km/h
417 16-04-2021 10:40:00 6.5 C 5.02 g/m*3 3.92 C 12.9 km/h
418 16-04-2021 10:45:00 6.7 C 4.94 g/m*3 3.92 C 14.5 km/h
419 16-04-2021 10:50:00 6.9 C 4.93 g/m*3 4.68 C 11.3 km/h
420 16-04-2021 10:55:00 7.1 C 4.91 g/m*3 4.41 C 14.5 km/h
421 16-04-2021 11:00:00 7.2 C 4.87 g/m*3 4.77 C 12.9 km/h
422 16-04-2021 11:05:00 7.3 C 4.98 g/m*3 4.9 C 12.9 km/h
423 16-04-2021 11:10:00 7.4 C 4.85 g/m*3 5.58 C 9.7 km/h
424 16-04-2021 11:15:00 7.4 C 4.77 g/m*3 4.78 C 14.5 km/h
425 16-04-2021 11:20:00 7.4 C 4.93 g/m*3 5.93 C 8.1 km/h
Sensor: Nr:Datum:Temp:Abs-Feuchte:Windchill:Wind:
Aussen-T/F 426 16-04-2021 11:25:00 7.6 C 4.99 g/m*3 6.16 C 8.1 km/h
427 16-04-2021 11:30:00 7.7 C 4.87 g/m*3 5.94 C 9.7 km/h
428 16-04-2021 11:35:00 7.8 C 4.82 g/m*3 5.06 C 16.1 km/h
429 16-04-2021 11:40:00 7.9 C 4.76 g/m*3 5.39 C 14.5 km/h
430 16-04-2021 11:45:00 8.1 C 4.83 g/m*3 5.23 C 17.7 km/h
431 16-04-2021 11:50:00 8.1 C 4.83 g/m*3 5.23 C 17.7 km/h
432 16-04-2021 11:55:00 8.2 C 4.77 g/m*3 5.99 C 12.9 km/h
433 16-04-2021 12:00:00 8.2 C 4.77 g/m*3 5.99 C 12.9 km/h
434 16-04-2021 12:05:00 8.2 C 4.86 g/m*3 6.25 C 11.3 km/h
435 16-04-2021 12:10:00 8.2 C 4.77 g/m*3 6.54 C 9.7 km/h
436 16-04-2021 12:15:00 8.2 C 4.86 g/m*3 7.29 C 6.4 km/h
437 16-04-2021 12:20:00 8.2 C 4.69 g/m*3 5.36 C 17.7 km/h
438 16-04-2021 12:25:00 8.3 C 4.8 g/m*3 5.48 C 17.7 km/h
439 16-04-2021 12:30:00 8.3 C 4.8 g/m*3 5.48 C 17.7 km/h
440 16-04-2021 12:35:00 8.6 C 4.73 g/m*3 6.25 C 14.5 km/h
441 16-04-2021 12:40:00 8.7 C 4.76 g/m*3 5.65 C 20.9 km/h
442 16-04-2021 12:45:00 8.8 C 4.7 g/m*3 6.11 C 17.7 km/h
443 16-04-2021 12:50:00 8.8 C 4.7 g/m*3 6.5 C 14.5 km/h
444 16-04-2021 12:55:00 8.9 C 4.73 g/m*3 6.85 C 12.9 km/h
445 16-04-2021 13:00:00 9.1 C 4.97 g/m*3 6.67 C 16.1 km/h
446 16-04-2021 13:05:00 9.2 C 4.64 g/m*3 6.79 C 16.1 km/h
447 16-04-2021 13:10:00 9.2 C 4.64 g/m*3 6.79 C 16.1 km/h
448 16-04-2021 13:15:00 9.3 C 4.67 g/m*3 7.33 C 12.9 km/h
449 16-04-2021 13:20:00 9.3 C 4.76 g/m*3 7.12 C 14.5 km/h
450 16-04-2021 13:25:00 9.3 C 4.58 g/m*3 7.12 C 14.5 km/h
Sensor: Nr:Datum:Temp:Abs-Feuchte:Windchill:Wind:
Aussen-T/F 451 16-04-2021 13:30:00 9.1 C 4.53 g/m*3 7.33 C 11.3 km/h
452 16-04-2021 13:35:00 8.9 C 4.82 g/m*3 8.1 C 6.4 km/h
453 16-04-2021 13:40:00 8.8 C 4.79 g/m*3 6.5 C 14.5 km/h
454 16-04-2021 13:45:00 8.8 C 4.96 g/m*3 7.58 C 8.1 km/h
455 16-04-2021 13:50:00 8.7 C 4.93 g/m*3 7.46 C 8.1 km/h
456 16-04-2021 13:55:00 8.7 C 4.76 g/m*3 7.13 C 9.7 km/h
457 16-04-2021 14:00:00 8.7 C 4.84 g/m*3 7.46 C 8.1 km/h
458 16-04-2021 14:05:00 8.7 C 4.93 g/m*3 7.46 C 8.1 km/h
459 16-04-2021 14:10:00 8.8 C 4.96 g/m*3 7.98 C 6.4 km/h
460 16-04-2021 14:15:00 8.8 C 4.96 g/m*3 8.8 C 3.2 km/h
461 16-04-2021 14:20:00 8.8 C 4.96 g/m*3 8.8 C 4.8 km/h
462 16-04-2021 14:25:00 8.8 C 4.96 g/m*3 8.8 C 4.8 km/h
463 16-04-2021 14:30:00 8.8 C 5.05 g/m*3 8.8 C 1.6 km/h
464 16-04-2021 14:35:00 8.9 C 5.08 g/m*3 7.69 C 8.1 km/h
465 16-04-2021 14:40:00 8.8 C 4.96 g/m*3 6.97 C 11.3 km/h
466 16-04-2021 14:45:00 8.8 C 5.05 g/m*3 7.25 C 9.7 km/h
467 16-04-2021 14:50:00 8.8 C 4.96 g/m*3 7.98 C 6.4 km/h
468 16-04-2021 14:55:00 8.8 C 5.05 g/m*3 8.8 C 4.8 km/h
469 16-04-2021 15:00:00 8.9 C 5.08 g/m*3 8.9 C 3.2 km/h
470 16-04-2021 15:05:00 8.9 C 5.08 g/m*3 8.9 C 0 km/h
471 16-04-2021 15:10:00 8.9 C 5.08 g/m*3 8.9 C 0 km/h
472 16-04-2021 15:15:00 8.9 C 5.17 g/m*3 8.9 C 0 km/h
473 16-04-2021 15:20:00 8.9 C 5.08 g/m*3 8.9 C 0 km/h
474 16-04-2021 15:25:00 8.9 C 4.99 g/m*3 8.9 C 4.8 km/h
475 16-04-2021 15:30:00 8.9 C 5.08 g/m*3 8.9 C 3.2 km/h
Sensor: Nr:Datum:Temp:Abs-Feuchte:Windchill:Wind:
Aussen-T/F 476 16-04-2021 15:35:00 8.9 C 5.08 g/m*3 8.9 C 4.8 km/h
477 16-04-2021 15:40:00 8.9 C 5.08 g/m*3 8.9 C 3.2 km/h
478 16-04-2021 15:45:00 8.9 C 4.99 g/m*3 8.9 C 3.2 km/h
479 16-04-2021 15:50:00 8.9 C 5.08 g/m*3 6.85 C 12.9 km/h
480 16-04-2021 15:55:00 8.9 C 5.08 g/m*3 8.9 C 4.8 km/h
481 16-04-2021 16:00:00 9.1 C 5.23 g/m*3 9.1 C 4.8 km/h
482 16-04-2021 16:05:00 9.2 C 5.09 g/m*3 7.73 C 9.7 km/h
483 16-04-2021 16:10:00 9.2 C 5.09 g/m*3 7.73 C 9.7 km/h
484 16-04-2021 16:15:00 9.2 C 5.09 g/m*3 7.73 C 9.7 km/h
485 16-04-2021 16:20:00 9.3 C 5.21 g/m*3 9.3 C 4.8 km/h
486 16-04-2021 16:25:00 9.5 C 5.46 g/m*3 8.4 C 8.1 km/h
487 16-04-2021 16:30:00 9.6 C 5.31 g/m*3 7.94 C 11.3 km/h
488 16-04-2021 16:35:00 9.3 C 5.21 g/m*3 7.33 C 12.9 km/h
489 16-04-2021 16:40:00 9.3 C 5.3 g/m*3 7.85 C 9.7 km/h
490 16-04-2021 16:45:00 9.3 C 5.3 g/m*3 7.33 C 12.9 km/h
491 16-04-2021 16:50:00 9.3 C 5.3 g/m*3 7.33 C 12.9 km/h
492 16-04-2021 16:55:00 9.3 C 5.3 g/m*3 7.85 C 9.7 km/h
493 16-04-2021 17:00:00 9.4 C 5.43 g/m*3 8.28 C 8.1 km/h
494 16-04-2021 17:05:00 9.5 C 5.55 g/m*3 8.4 C 8.1 km/h
495 16-04-2021 17:10:00 9.6 C 5.5 g/m*3 9.6 C 3.2 km/h
496 16-04-2021 17:15:00 9.7 C 5.44 g/m*3 9.7 C 4.8 km/h
497 16-04-2021 17:20:00 9.7 C 5.44 g/m*3 9.7 C 3.2 km/h
498 16-04-2021 17:25:00 9.6 C 5.31 g/m*3 9.6 C 3.2 km/h
499 16-04-2021 17:30:00 9.6 C 5.5 g/m*3 9.6 C 4.8 km/h
500 16-04-2021 17:35:00 9.6 C 5.4 g/m*3 9.6 C 4.8 km/h
Sensor: Nr:Datum:Temp:Abs-Feuchte:Windchill:Wind:
Aussen-T/F 501 16-04-2021 17:40:00 9.4 C 5.34 g/m*3 8.68 C 6.4 km/h
502 16-04-2021 17:45:00 9.4 C 5.34 g/m*3 8.68 C 6.4 km/h
503 16-04-2021 17:50:00 9.3 C 5.3 g/m*3 9.3 C 1.6 km/h
504 16-04-2021 17:55:00 9.3 C 5.39 g/m*3 9.3 C 0 km/h
505 16-04-2021 18:00:00 9.3 C 5.3 g/m*3 9.3 C 0 km/h
506 16-04-2021 18:05:00 9.3 C 5.39 g/m*3 9.3 C 0 km/h
507 16-04-2021 18:10:00 9.4 C 5.43 g/m*3 9.4 C 1.6 km/h
508 16-04-2021 18:15:00 9.4 C 5.43 g/m*3 9.4 C 1.6 km/h
509 16-04-2021 18:20:00 9.4 C 5.43 g/m*3 9.4 C 1.6 km/h
510 16-04-2021 18:25:00 9.4 C 5.43 g/m*3 9.4 C 0 km/h
511 16-04-2021 18:30:00 9.4 C 5.43 g/m*3 9.4 C 1.6 km/h
512 16-04-2021 18:35:00 9.4 C 5.43 g/m*3 9.4 C 1.6 km/h
513 16-04-2021 18:40:00 9.4 C 5.43 g/m*3 9.4 C 0 km/h
514 16-04-2021 18:45:00 9.4 C 5.43 g/m*3 9.4 C 0 km/h
515 16-04-2021 18:50:00 9.4 C 5.43 g/m*3 9.4 C 1.6 km/h
516 16-04-2021 18:55:00 9.3 C 5.48 g/m*3 9.3 C 0 km/h
517 16-04-2021 19:00:00 9.3 C 5.48 g/m*3 9.3 C 0 km/h
518 16-04-2021 19:05:00 9.3 C 5.57 g/m*3 9.3 C 0 km/h
519 16-04-2021 19:10:00 9.3 C 5.48 g/m*3 9.3 C 0 km/h
520 16-04-2021 19:15:00 9.2 C 5.54 g/m*3 9.2 C 0 km/h
521 16-04-2021 19:20:00 9.2 C 5.71 g/m*3 9.2 C 0 km/h
522 16-04-2021 19:25:00 9.2 C 5.54 g/m*3 9.2 C 0 km/h
523 16-04-2021 19:30:00 9.1 C 5.59 g/m*3 9.1 C 0 km/h
524 16-04-2021 19:35:00 9.1 C 5.59 g/m*3 9.1 C 0 km/h
525 16-04-2021 19:40:00 9 C 5.73 g/m*3 9 C 0 km/h
Sensor: Nr:Datum:Temp:Abs-Feuchte:Windchill:Wind:
Aussen-T/F 526 16-04-2021 19:45:00 9 C 5.91 g/m*3 9 C 0 km/h
527 16-04-2021 19:50:00 8.9 C 5.87 g/m*3 8.9 C 0 km/h
528 16-04-2021 19:55:00 8.8 C 5.92 g/m*3 8.8 C 0 km/h
529 16-04-2021 20:00:00 8.8 C 6.01 g/m*3 8.8 C 0 km/h
530 16-04-2021 20:05:00 8.7 C 5.97 g/m*3 8.7 C 0 km/h
531 16-04-2021 20:10:00 8.6 C 5.93 g/m*3 8.6 C 0 km/h
532 16-04-2021 20:15:00 8.4 C 5.94 g/m*3 8.4 C 0 km/h
533 16-04-2021 20:20:00 8.2 C 5.86 g/m*3 8.2 C 0 km/h
534 16-04-2021 20:25:00 7.9 C 5.83 g/m*3 7.9 C 0 km/h
535 16-04-2021 20:30:00 7.8 C 5.96 g/m*3 7.8 C 3.2 km/h
536 16-04-2021 20:35:00 7.6 C 5.88 g/m*3 7.6 C 3.2 km/h
537 16-04-2021 20:40:00 7.3 C 5.85 g/m*3 7.3 C 4.8 km/h
538 16-04-2021 20:45:00 7.2 C 5.89 g/m*3 7.2 C 4.8 km/h
539 16-04-2021 20:50:00 7 C 5.81 g/m*3 7 C 3.2 km/h
540 16-04-2021 20:55:00 6.8 C 5.81 g/m*3 6.8 C 1.6 km/h
541 16-04-2021 21:00:00 6.6 C 5.81 g/m*3 6.6 C 0 km/h
542 16-04-2021 21:05:00 6.4 C 5.74 g/m*3 6.4 C 0 km/h
543 16-04-2021 21:10:00 6.3 C 5.77 g/m*3 6.3 C 0 km/h
544 16-04-2021 21:15:00 6.2 C 5.74 g/m*3 6.2 C 0 km/h
545 16-04-2021 21:20:00 6 C 5.73 g/m*3 6 C 0 km/h
546 16-04-2021 21:25:00 5.9 C 5.77 g/m*3 5.9 C 0 km/h
547 16-04-2021 21:30:00 5.8 C 5.73 g/m*3 5.8 C 0 km/h
548 16-04-2021 21:35:00 5.8 C 5.8 g/m*3 5.8 C 0 km/h
549 16-04-2021 21:40:00 5.8 C 5.8 g/m*3 5.8 C 0 km/h
550 16-04-2021 21:45:00 5.8 C 5.8 g/m*3 5.8 C 0 km/h
Sensor: Nr:Datum:Temp:Abs-Feuchte:Windchill:Wind:
Aussen-T/F 551 16-04-2021 21:50:00 5.8 C 5.8 g/m*3 5.8 C 0 km/h
552 16-04-2021 21:55:00 5.8 C 5.87 g/m*3 5.8 C 0 km/h
553 16-04-2021 22:00:00 5.8 C 5.8 g/m*3 5.8 C 0 km/h
554 16-04-2021 22:05:00 5.7 C 5.76 g/m*3 5.7 C 0 km/h
555 16-04-2021 22:10:00 5.6 C 5.8 g/m*3 5.6 C 0 km/h
556 16-04-2021 22:15:00 5.5 C 5.76 g/m*3 5.5 C 0 km/h
557 16-04-2021 22:20:00 5.4 C 5.72 g/m*3 5.4 C 0 km/h
558 16-04-2021 22:25:00 5.4 C 5.79 g/m*3 5.4 C 0 km/h
559 16-04-2021 22:30:00 5.4 C 5.79 g/m*3 5.4 C 0 km/h
560 16-04-2021 22:35:00 5.4 C 5.79 g/m*3 5.4 C 0 km/h
561 16-04-2021 22:40:00 5.4 C 5.86 g/m*3 5.4 C 0 km/h
562 16-04-2021 22:45:00 5.3 C 5.82 g/m*3 5.3 C 0 km/h
563 16-04-2021 22:50:00 5.3 C 5.82 g/m*3 5.3 C 0 km/h
564 16-04-2021 22:55:00 5.2 C 5.78 g/m*3 5.2 C 0 km/h
565 16-04-2021 23:00:00 5.1 C 5.75 g/m*3 5.1 C 0 km/h
566 16-04-2021 23:05:00 5.1 C 5.75 g/m*3 5.1 C 0 km/h
567 16-04-2021 23:10:00 5.1 C 5.75 g/m*3 5.1 C 0 km/h
568 16-04-2021 23:15:00 5 C 5.78 g/m*3 5 C 0 km/h
569 16-04-2021 23:20:00 5 C 5.78 g/m*3 5 C 0 km/h
570 16-04-2021 23:25:00 4.9 C 5.74 g/m*3 4.9 C 0 km/h
571 16-04-2021 23:30:00 4.8 C 5.7 g/m*3 4.8 C 0 km/h
572 16-04-2021 23:35:00 4.7 C 5.66 g/m*3 4.7 C 0 km/h
573 16-04-2021 23:40:00 4.7 C 5.66 g/m*3 4.7 C 0 km/h
574 16-04-2021 23:45:00 4.6 C 5.62 g/m*3 4.6 C 0 km/h
575 16-04-2021 23:50:00 4.5 C 5.59 g/m*3 4.5 C 0 km/h
Sensor: Nr:Datum:Temp:Abs-Feuchte:Windchill:Wind:
Aussen-T/F 576 16-04-2021 23:55:00 4.4 C 5.62 g/m*3 4.4 C 0 km/h

Legende:
   Min
   Max


Maximal/Minimal-Werte vom 15.04.2021 - 16.04.2021

Sensor Min Max Avg
Temp
(Aussen-T/F)
-1.3 °C
15-04-2021  06:55:00
9.7 °C
16-04-2021  17:15:00
4.51 °C
Abs-Feuchte
(Aussen-T/F)
4.21 g/m*3
15-04-2021  06:55:00
6.2 g/m*3
15-04-2021  17:00:00
5.06 g/m*3
Windchill
(Aussen-T/F)
-1.3 C
15-04-2021  06:55:00
9.7 C
16-04-2021  17:15:00
4.06 C

Die Daten stammen von einer Davis Vantage Pro 2 Wetter-Station und werden unter Linux mit der Software wview2wettercgi und aufbereitet. Alle Angaben erfolgen ohne Gewähr für ihre Vollständigkeit oder Richtigkeit.
Kontakt: Rainer Krienke krienke@uni-koblenz.de . Meine Webseiten an der Uni Koblenz oder privat.
Version: $Revision: 0.78 $